Time;durP1;ratioP1;P1;durP2;ratioP2;P2;SDS_P1;SDS_P2;PMS_P1;PMS_P2;Temp;Humidity;BMP_temperature;BMP_pressure;BME280_temperature;BME280_humidity;BME280_pressure;Samples;Min_cycle;Max_cycle;Signal;HPM_P1;HPM_P2
2022/10/20 00:01:10;;;;;;;7.70;5.40;;;8.80;99.90;;;;;;4916205;29;20515;-77
2022/10/20 00:03:39;;;;;;;7.10;5.20;;;8.80;99.90;;;;;;4916335;29;20543;-77
2022/10/20 00:06:09;;;;;;;6.47;5.23;;;8.80;99.90;;;;;;4916292;29;20461;-76
2022/10/20 00:08:38;;;;;;;5.90;5.30;;;8.80;99.90;;;;;;4917612;29;20429;-77
2022/10/20 00:11:07;;;;;;;11.60;5.63;;;8.70;99.90;;;;;;4916192;29;20480;-76
2022/10/20 00:13:38;;;;;;;7.93;5.80;;;8.70;99.90;;;;;;4917060;29;20471;-77
2022/10/20 00:16:07;;;;;;;6.83;5.40;;;8.70;99.90;;;;;;4917742;29;20523;-76
2022/10/20 00:18:35;;;;;;;5.83;5.23;;;8.70;99.90;;;;;;4916076;29;20877;-77
2022/10/20 00:21:06;;;;;;;8.37;5.80;;;8.70;99.90;;;;;;4917567;29;20850;-77
2022/10/20 00:23:34;;;;;;;7.73;5.60;;;8.70;99.90;;;;;;4917836;29;20511;-77
2022/10/20 00:26:04;;;;;;;6.80;5.80;;;8.60;99.90;;;;;;4917290;29;21002;-76
2022/10/20 00:28:32;;;;;;;7.77;5.90;;;8.60;99.90;;;;;;4917287;29;21013;-76
2022/10/20 00:31:03;;;;;;;6.80;5.67;;;8.60;99.90;;;;;;4915867;29;20478;-77
2022/10/20 00:33:31;;;;;;;8.07;5.90;;;8.60;99.90;;;;;;4916004;29;20937;-76
2022/10/20 00:36:00;;;;;;;8.10;5.53;;;8.60;99.90;;;;;;4917093;29;20452;-77
2022/10/20 00:38:28;;;;;;;8.53;5.90;;;8.60;99.90;;;;;;4916096;29;20460;-76
2022/10/20 00:40:58;;;;;;;5.80;5.20;;;8.60;99.90;;;;;;4917086;29;20468;-76
2022/10/20 00:43:41;;;;;;;7.13;5.63;;;8.50;99.90;;;;;;4917460;29;20425;-76
2022/10/20 00:46:12;;;;;;;6.77;5.70;;;8.50;99.90;;;;;;4915920;29;20452;-77
2022/10/20 00:48:42;;;;;;;8.13;5.47;;;8.50;99.90;;;;;;4917374;29;20416;-76
2022/10/20 00:51:13;;;;;;;6.00;5.40;;;8.50;99.90;;;;;;4915905;29;20477;-76
2022/10/20 00:53:43;;;;;;;6.83;5.73;;;8.50;99.90;;;;;;4917520;29;20467;-77
2022/10/20 00:56:11;;;;;;;7.77;6.20;;;8.50;99.90;;;;;;4917008;29;20459;-77
2022/10/20 00:58:39;;;;;;;7.13;5.70;;;8.50;99.90;;;;;;4916155;29;20456;-76
2022/10/20 01:01:08;;;;;;;6.20;4.90;;;8.40;99.90;;;;;;4917113;29;20519;-76
2022/10/20 01:03:44;;;;;;;7.50;5.60;;;8.40;99.90;;;;;;4917158;29;20895;-76
2022/10/20 01:06:14;;;;;;;6.67;5.50;;;8.40;99.90;;;;;;4915756;29;20512;-76
2022/10/20 01:08:47;;;;;;;7.80;5.67;;;8.40;99.90;;;;;;4915763;29;20439;-76
2022/10/20 01:11:20;;;;;;;9.00;6.50;;;8.40;99.90;;;;;;4915644;29;20510;-77
2022/10/20 01:14:17;;;;;;;6.90;5.50;;;8.40;99.90;;;;;;4916920;29;20425;-77
2022/10/20 01:16:53;;;;;;;6.37;5.13;;;8.30;99.90;;;;;;4915752;29;20507;-77
2022/10/20 01:19:46;;;;;;;7.00;5.20;;;8.30;99.90;;;;;;4917114;29;20432;-76
2022/10/20 01:22:40;;;;;;;8.33;6.30;;;8.30;99.90;;;;;;4915718;29;20531;-76
2022/10/20 01:25:20;;;;;;;6.30;5.30;;;8.30;99.90;;;;;;4916942;29;20851;-76
2022/10/20 01:27:55;;;;;;;7.90;5.90;;;8.30;99.90;;;;;;4918956;29;20443;-76
2022/10/20 01:30:24;;;;;;;6.10;5.33;;;8.20;99.90;;;;;;4919290;29;20844;-76
2022/10/20 01:33:11;;;;;;;8.73;5.83;;;8.20;99.90;;;;;;4920183;29;20498;-76
2022/10/20 01:35:48;;;;;;;6.40;5.63;;;8.20;99.90;;;;;;4919050;29;20438;-76
2022/10/20 01:38:24;;;;;;;8.10;5.93;;;8.10;99.90;;;;;;4920479;29;20894;-76
2022/10/20 01:41:00;;;;;;;6.80;5.63;;;8.10;99.90;;;;;;4920430;29;20851;-76
2022/10/20 01:43:34;;;;;;;7.43;5.80;;;8.10;99.90;;;;;;4918876;29;20464;-76
2022/10/20 01:46:04;;;;;;;7.80;5.93;;;8.10;99.90;;;;;;4918838;29;20455;-76
2022/10/20 01:48:36;;;;;;;6.07;5.47;;;8.10;99.90;;;;;;4918967;29;20456;-76
2022/10/20 01:51:05;;;;;;;6.17;5.57;;;8.10;99.90;;;;;;4918730;29;20472;-76
2022/10/20 01:53:33;;;;;;;6.60;5.33;;;8.10;99.90;;;;;;4920089;29;20479;-76
2022/10/20 01:56:02;;;;;;;6.53;5.60;;;8.00;99.90;;;;;;4919729;29;20836;-76
2022/10/20 01:58:51;;;;;;;7.30;5.60;;;8.00;99.90;;;;;;4918720;29;20882;-76
2022/10/20 02:01:32;;;;;;;6.47;5.80;;;8.00;99.90;;;;;;4918507;29;20499;-76
2022/10/20 02:04:02;;;;;;;7.37;5.97;;;8.00;99.90;;;;;;4920030;29;20451;-76
2022/10/20 02:06:41;;;;;;;9.50;6.10;;;8.00;99.90;;;;;;4918434;29;20946;-76
2022/10/20 02:09:16;;;;;;;7.43;5.77;;;7.90;99.90;;;;;;4919562;29;20922;-76
2022/10/20 02:11:49;;;;;;;7.30;5.93;;;7.90;99.90;;;;;;4918277;29;20475;-76
2022/10/20 02:14:21;;;;;;;7.10;5.63;;;7.80;99.90;;;;;;4918261;29;20470;-76
2022/10/20 02:16:52;;;;;;;8.67;5.27;;;7.90;99.90;;;;;;4918351;29;20468;-76
2022/10/20 02:19:24;;;;;;;6.87;6.03;;;7.80;99.90;;;;;;4918466;29;20812;-76
2022/10/20 02:21:53;;;;;;;7.33;6.50;;;7.80;99.90;;;;;;4918210;29;20444;-76
2022/10/20 02:24:25;;;;;;;6.83;6.17;;;7.80;99.90;;;;;;4918080;29;20459;-76
2022/10/20 02:26:57;;;;;;;7.53;6.40;;;7.80;99.90;;;;;;4918203;29;20445;-76
2022/10/20 02:29:29;;;;;;;6.60;5.90;;;7.70;99.90;;;;;;4918008;29;20871;-76
2022/10/20 02:31:58;;;;;;;5.80;5.17;;;7.70;99.90;;;;;;4919249;29;20868;-76
2022/10/20 02:34:26;;;;;;;8.03;6.73;;;7.70;99.90;;;;;;4919183;29;20951;-76
2022/10/20 02:36:57;;;;;;;7.70;6.00;;;7.70;99.90;;;;;;4917871;29;20462;-76
2022/10/20 02:39:25;;;;;;;6.90;5.60;;;7.60;99.90;;;;;;4917834;29;20966;-76
2022/10/20 02:41:53;;;;;;;7.73;6.77;;;7.70;99.90;;;;;;4919247;29;20449;-76
2022/10/20 02:44:22;;;;;;;7.97;6.40;;;7.60;99.90;;;;;;4919005;29;20805;-76
2022/10/20 02:46:52;;;;;;;8.53;5.70;;;7.60;99.90;;;;;;4918921;29;20517;-76
2022/10/20 02:49:20;;;;;;;8.13;6.40;;;7.60;99.90;;;;;;4917908;29;20837;-76
2022/10/20 02:51:48;;;;;;;8.30;6.00;;;7.60;99.90;;;;;;4917658;29;20453;-76
2022/10/20 02:54:16;;;;;;;7.00;5.77;;;7.60;99.90;;;;;;4917319;29;20482;-76
2022/10/20 02:56:44;;;;;;;7.70;6.13;;;7.60;99.90;;;;;;4917573;29;20514;-76
2022/10/20 02:59:13;;;;;;;9.03;6.23;;;7.50;99.90;;;;;;4919165;29;20467;-76
2022/10/20 03:01:41;;;;;;;6.40;5.80;;;7.60;99.90;;;;;;4918723;29;20980;-76
2022/10/20 03:04:11;;;;;;;6.97;6.00;;;7.50;99.90;;;;;;4918867;29;20443;-76
2022/10/20 03:06:40;;;;;;;7.50;5.53;;;7.50;99.90;;;;;;4918567;29;20479;-76
2022/10/20 03:09:08;;;;;;;7.03;6.10;;;7.50;99.90;;;;;;4918555;29;20450;-76
2022/10/20 03:11:36;;;;;;;10.33;9.10;;;7.50;99.90;;;;;;4918695;29;20525;-76
2022/10/20 03:14:04;;;;;;;8.40;7.00;;;7.50;99.90;;;;;;4918312;29;20504;-76
2022/10/20 03:16:32;;;;;;;7.77;6.00;;;7.40;99.90;;;;;;4917136;29;20514;-76
2022/10/20 03:19:00;;;;;;;7.00;6.30;;;7.40;99.90;;;;;;4917825;29;20490;-76
2022/10/20 03:21:35;;;;;;;7.27;6.00;;;7.40;99.90;;;;;;4919266;29;20969;-76
2022/10/20 03:24:04;;;;;;;9.60;6.73;;;7.40;99.90;;;;;;4918806;29;20439;-76
2022/10/20 03:26:32;;;;;;;9.97;7.07;;;7.40;99.90;;;;;;4918173;29;20964;-76
2022/10/20 03:29:00;;;;;;;8.80;6.83;;;7.40;99.90;;;;;;4918070;29;21040;-76
2022/10/20 03:31:28;;;;;;;8.33;5.97;;;7.30;99.90;;;;;;4918315;29;20460;-76
2022/10/20 03:33:56;;;;;;;7.13;6.33;;;7.30;99.90;;;;;;4916928;29;20468;-76
2022/10/20 03:36:24;;;;;;;7.40;6.57;;;7.30;99.90;;;;;;4918276;29;20451;-76
2022/10/20 03:38:54;;;;;;;6.70;5.60;;;7.30;99.90;;;;;;4917995;29;20467;-76
2022/10/20 03:41:22;;;;;;;7.63;5.53;;;7.30;99.90;;;;;;4917892;29;20467;-76
2022/10/20 03:43:50;;;;;;;7.80;6.10;;;7.30;99.90;;;;;;4917875;29;20448;-76
2022/10/20 03:46:18;;;;;;;8.07;6.70;;;7.30;99.90;;;;;;4917897;29;20476;-76
2022/10/20 03:48:46;;;;;;;7.87;6.20;;;7.30;99.90;;;;;;4917446;29;20949;-76
2022/10/20 03:51:15;;;;;;;9.47;5.63;;;7.30;99.90;;;;;;4916592;29;20995;-76
2022/10/20 03:53:43;;;;;;;6.37;5.63;;;7.30;99.90;;;;;;4917690;29;20994;-76
2022/10/20 03:56:17;;;;;;;10.90;7.00;;;7.30;99.90;;;;;;4916348;29;20508;-76
2022/10/20 03:58:45;;;;;;;6.80;5.73;;;7.20;99.90;;;;;;4916463;29;20541;-76
2022/10/20 04:01:15;;;;;;;8.67;6.10;;;7.20;99.90;;;;;;4916282;29;20521;-76
2022/10/20 04:03:43;;;;;;;8.67;6.27;;;7.20;99.90;;;;;;4916291;29;20962;-76
2022/10/20 04:06:13;;;;;;;7.17;6.00;;;7.20;99.90;;;;;;4916592;29;20481;-76
2022/10/20 04:08:41;;;;;;;7.83;6.30;;;7.20;99.90;;;;;;4916256;29;20953;-76
2022/10/20 04:11:09;;;;;;;7.37;6.63;;;7.20;99.90;;;;;;4917955;29;20799;-76
2022/10/20 04:13:39;;;;;;;6.40;5.70;;;7.20;99.90;;;;;;4917352;29;20474;-76
2022/10/20 04:16:08;;;;;;;7.10;6.10;;;7.10;99.90;;;;;;4916160;29;20455;-76
2022/10/20 04:18:36;;;;;;;8.63;6.10;;;7.10;99.90;;;;;;4916423;29;20826;-76
2022/10/20 04:21:04;;;;;;;10.10;6.23;;;7.10;99.90;;;;;;4916151;29;21002;-76
2022/10/20 04:23:32;;;;;;;6.57;5.97;;;7.10;99.90;;;;;;4917292;29;20457;-76
2022/10/20 04:26:06;;;;;;;7.17;6.00;;;7.10;99.90;;;;;;4916041;29;20462;-76
2022/10/20 04:28:34;;;;;;;7.43;6.30;;;7.10;99.90;;;;;;4916182;29;20467;-76
2022/10/20 04:31:05;;;;;;;6.80;6.10;;;7.10;99.90;;;;;;4916033;29;20525;-75
2022/10/20 04:33:34;;;;;;;7.60;6.37;;;7.10;99.90;;;;;;4917413;29;20466;-75
2022/10/20 04:36:04;;;;;;;7.50;6.40;;;7.10;99.90;;;;;;4917900;29;20457;-75
2022/10/20 04:38:34;;;;;;;7.37;6.63;;;7.00;99.90;;;;;;4918013;29;20514;-76
2022/10/20 04:41:04;;;;;;;8.47;7.20;;;7.00;99.90;;;;;;4917464;29;20598;-76
2022/10/20 04:43:32;;;;;;;9.50;7.13;;;7.00;99.90;;;;;;4918027;29;20432;-75
2022/10/20 04:46:02;;;;;;;7.23;6.50;;;7.00;99.90;;;;;;4917122;29;20441;-76
2022/10/20 04:48:37;;;;;;;8.23;7.10;;;7.00;99.90;;;;;;4917368;29;20860;-76
2022/10/20 04:51:07;;;;;;;8.10;6.77;;;7.00;99.90;;;;;;4917115;29;20457;-76
2022/10/20 04:53:36;;;;;;;8.53;6.03;;;7.00;99.90;;;;;;4916896;29;21044;-76
2022/10/20 04:56:05;;;;;;;7.70;6.90;;;7.00;99.90;;;;;;4915919;29;20596;-76
2022/10/20 04:58:34;;;;;;;7.60;6.80;;;7.00;99.90;;;;;;4915704;29;20454;-76
2022/10/20 05:01:03;;;;;;;7.37;6.27;;;7.00;99.90;;;;;;4918100;29;20474;-76
2022/10/20 05:03:32;;;;;;;7.23;6.27;;;6.90;99.90;;;;;;4921080;29;20799;-76
2022/10/20 05:06:10;;;;;;;6.93;6.20;;;6.90;99.90;;;;;;4920776;29;20783;-75
2022/10/20 05:08:39;;;;;;;8.83;7.50;;;6.90;99.90;;;;;;4919515;29;20444;-76
2022/10/20 05:11:08;;;;;;;10.43;8.93;;;6.90;99.90;;;;;;4920559;29;20497;-76
2022/10/20 05:13:36;;;;;;;7.30;6.60;;;6.90;99.90;;;;;;4920831;29;20444;-76
2022/10/20 05:16:05;;;;;;;9.63;6.80;;;6.90;99.90;;;;;;4919368;29;20453;-77
2022/10/20 05:18:34;;;;;;;8.70;6.20;;;6.90;99.90;;;;;;4919271;29;20874;-77
2022/10/20 05:21:06;;;;;;;8.50;6.50;;;6.80;99.90;;;;;;4920687;29;20527;-78
2022/10/20 05:23:39;;;;;;;6.90;6.20;;;6.80;99.90;;;;;;4919237;29;20449;-77
2022/10/20 05:26:09;;;;;;;6.77;5.93;;;6.90;99.90;;;;;;4919208;29;20461;-78
2022/10/20 05:28:38;;;;;;;8.10;6.77;;;6.80;99.90;;;;;;4919165;29;20456;-78
2022/10/20 05:31:08;;;;;;;7.27;5.73;;;6.80;99.90;;;;;;4918985;29;20856;-78
2022/10/20 05:33:36;;;;;;;10.33;6.53;;;6.80;99.90;;;;;;4920301;29;20430;-78
2022/10/20 05:36:09;;;;;;;8.33;6.70;;;6.80;99.90;;;;;;4920204;29;20459;-78
2022/10/20 05:38:39;;;;;;;6.53;5.83;;;6.80;99.90;;;;;;4919059;29;20815;-78
2022/10/20 05:41:09;;;;;;;8.90;6.90;;;6.80;99.90;;;;;;4920353;29;20833;-78
2022/10/20 05:43:38;;;;;;;9.30;8.30;;;6.80;99.90;;;;;;4919661;29;20848;-78
2022/10/20 05:46:07;;;;;;;7.47;6.63;;;6.80;99.90;;;;;;4920296;29;20816;-78
2022/10/20 05:48:35;;;;;;;7.63;6.83;;;6.80;99.90;;;;;;4918857;29;20456;-77
2022/10/20 05:51:11;;;;;;;11.40;7.00;;;6.80;99.90;;;;;;4920034;29;20458;-78
2022/10/20 05:53:45;;;;;;;8.50;6.80;;;6.80;99.90;;;;;;4918925;29;20464;-78
2022/10/20 05:56:16;;;;;;;7.90;6.17;;;6.80;99.90;;;;;;4918636;29;20516;-78
2022/10/20 05:58:46;;;;;;;12.50;8.80;;;6.80;99.90;;;;;;4918643;29;20958;-78
2022/10/20 06:01:18;;;;;;;8.30;6.37;;;6.80;99.90;;;;;;4919206;29;20482;-77
2022/10/20 06:03:49;;;;;;;7.17;6.47;;;6.80;99.90;;;;;;4919710;29;20491;-78
2022/10/20 06:06:19;;;;;;;6.90;6.20;;;6.80;99.90;;;;;;4919829;29;20479;-78
2022/10/20 06:08:49;;;;;;;9.53;6.47;;;6.80;99.90;;;;;;4919639;29;20446;-77
2022/10/20 06:11:19;;;;;;;9.67;7.97;;;6.80;99.90;;;;;;4918131;29;20475;-78
2022/10/20 06:13:47;;;;;;;8.37;7.57;;;6.80;99.90;;;;;;4918947;29;20986;-78
2022/10/20 06:16:21;;;;;;;7.23;6.37;;;6.80;99.90;;;;;;4919850;29;20474;-78
2022/10/20 06:18:50;;;;;;;9.30;6.70;;;6.80;99.90;;;;;;4919284;29;20462;-77
2022/10/20 06:21:20;;;;;;;7.70;5.90;;;6.80;99.90;;;;;;4919039;29;20519;-77
2022/10/20 06:23:50;;;;;;;7.80;6.63;;;6.80;99.90;;;;;;4919241;29;20791;-78
2022/10/20 06:26:20;;;;;;;8.43;7.30;;;6.80;99.90;;;;;;4918503;29;20825;-78
2022/10/20 06:28:51;;;;;;;7.07;6.37;;;6.80;99.90;;;;;;4918569;29;20453;-78
2022/10/20 06:31:20;;;;;;;6.77;6.10;;;6.80;99.90;;;;;;4918860;29;20483;-77
2022/10/20 06:33:49;;;;;;;7.00;6.00;;;6.80;99.90;;;;;;4918540;29;20476;-78
2022/10/20 06:36:19;;;;;;;8.93;7.50;;;6.80;99.90;;;;;;4918146;29;20473;-78
2022/10/20 06:38:48;;;;;;;6.73;6.03;;;6.80;99.90;;;;;;4918221;29;20474;-78
2022/10/20 06:41:18;;;;;;;7.93;6.00;;;6.80;99.90;;;;;;4918101;29;20538;-78
2022/10/20 06:43:46;;;;;;;9.37;5.83;;;6.90;99.90;;;;;;4919604;29;20432;-78
2022/10/20 06:46:16;;;;;;;7.33;6.57;;;6.90;99.90;;;;;;4917973;29;20473;-78
2022/10/20 06:48:44;;;;;;;6.50;5.90;;;6.90;99.90;;;;;;4918300;29;20465;-78
2022/10/20 06:51:14;;;;;;;6.20;5.60;;;6.90;99.90;;;;;;4919184;29;20834;-78
2022/10/20 06:53:43;;;;;;;7.50;6.07;;;6.90;99.90;;;;;;4917826;29;20448;-78
2022/10/20 06:56:16;;;;;;;7.57;6.77;;;6.90;99.90;;;;;;4918986;29;20575;-78
2022/10/20 06:58:48;;;;;;;7.30;6.60;;;7.00;99.90;;;;;;4917535;29;20454;-78
2022/10/20 07:01:18;;;;;;;8.60;6.30;;;7.00;99.90;;;;;;4917767;29;20509;-77
2022/10/20 07:03:47;;;;;;;7.37;6.20;;;7.00;99.90;;;;;;4919121;29;20449;-78
2022/10/20 07:06:17;;;;;;;9.43;6.90;;;7.00;99.90;;;;;;4918691;29;20510;-77
2022/10/20 07:08:46;;;;;;;8.10;6.30;;;7.10;99.90;;;;;;4917464;29;20559;-78
2022/10/20 07:11:17;;;;;;;7.70;6.17;;;7.10;99.90;;;;;;4917498;29;20844;-77
2022/10/20 07:13:48;;;;;;;9.20;7.60;;;7.10;99.90;;;;;;4919017;29;20434;-76
2022/10/20 07:16:18;;;;;;;7.87;7.10;;;7.20;99.90;;;;;;4918843;29;20514;-76
2022/10/20 07:18:46;;;;;;;7.97;6.27;;;7.20;99.90;;;;;;4917928;29;20871;-78
2022/10/20 07:21:17;;;;;;;8.17;6.23;;;7.30;99.90;;;;;;4917403;29;20480;-77
2022/10/20 07:23:46;;;;;;;7.60;6.30;;;7.30;99.90;;;;;;4916466;29;20456;-76
2022/10/20 07:26:16;;;;;;;7.83;6.60;;;7.40;99.90;;;;;;4917079;29;20458;-77
2022/10/20 07:28:48;;;;;;;7.60;6.80;;;7.40;99.90;;;;;;4918773;29;20433;-77
2022/10/20 07:31:25;;;;;;;7.03;6.33;;;7.40;99.90;;;;;;4917042;29;20486;-77
2022/10/20 07:33:53;;;;;;;7.67;6.13;;;7.50;99.90;;;;;;4917100;29;20459;-77
2022/10/20 07:36:42;;;;;;;9.40;5.97;;;7.50;99.90;;;;;;4917092;29;20477;-78
2022/10/20 07:39:12;;;;;;;8.37;6.80;;;7.60;99.90;;;;;;4916872;29;20458;-74
2022/10/20 07:41:42;;;;;;;27.40;11.73;;;7.60;99.90;;;;;;4918811;29;20475;-76
2022/10/20 07:44:12;;;;;;;13.20;8.10;;;7.70;99.90;;;;;;4917096;29;20444;-75
2022/10/20 07:46:40;;;;;;;11.20;7.53;;;7.80;99.90;;;;;;4918508;29;20524;-74
2022/10/20 07:49:09;;;;;;;7.47;6.67;;;7.80;99.90;;;;;;4918626;29;20454;-74
2022/10/20 07:51:57;;;;;;;7.70;6.97;;;7.90;99.90;;;;;;4916939;29;20512;-74
2022/10/20 07:54:25;;;;;;;7.60;6.90;;;8.00;99.90;;;;;;4917756;29;20515;-75
2022/10/20 07:56:53;;;;;;;7.17;6.47;;;8.10;99.90;;;;;;4918331;29;20469;-74
2022/10/20 07:59:23;;;;;;;7.10;5.63;;;8.20;99.90;;;;;;4918240;29;20989;-74
2022/10/20 08:01:51;;;;;;;11.07;8.13;;;8.20;99.90;;;;;;4916762;29;20460;-75
2022/10/20 08:04:25;;;;;;;7.57;6.77;;;8.30;99.90;;;;;;4918349;29;20431;-76
2022/10/20 08:06:53;;;;;;;9.57;6.90;;;8.40;99.90;;;;;;4916480;29;20461;-75
2022/10/20 08:09:22;;;;;;;8.23;7.20;;;8.40;99.90;;;;;;4916874;29;20457;-76
2022/10/20 08:11:50;;;;;;;7.77;6.97;;;8.50;99.90;;;;;;4916934;29;20445;-75
2022/10/20 08:14:25;;;;;;;7.53;6.70;;;8.50;99.90;;;;;;4917578;29;20446;-76
2022/10/20 08:16:54;;;;;;;8.30;7.50;;;8.60;99.90;;;;;;4916760;29;20500;-76
2022/10/20 08:19:25;;;;;;;7.07;6.37;;;8.60;99.90;;;;;;4917652;29;20511;-75
2022/10/20 08:22:11;;;;;;;7.10;6.40;;;8.70;99.90;;;;;;4916603;29;20459;-75
2022/10/20 08:24:39;;;;;;;9.13;7.67;;;8.70;99.90;;;;;;4917864;29;20533;-76
2022/10/20 08:27:08;;;;;;;8.10;7.40;;;8.80;99.90;;;;;;4916274;29;20456;-76
2022/10/20 08:29:38;;;;;;;7.73;6.60;;;8.90;99.90;;;;;;4917633;29;20527;-75
2022/10/20 08:32:06;;;;;;;8.13;7.17;;;8.90;99.90;;;;;;4917204;29;20504;-75
2022/10/20 08:34:34;;;;;;;8.40;7.57;;;9.00;99.90;;;;;;4915856;29;20957;-74
2022/10/20 08:37:04;;;;;;;8.03;7.27;;;9.00;99.90;;;;;;4917237;29;20490;-76
2022/10/20 08:39:33;;;;;;;8.60;7.67;;;9.10;99.90;;;;;;4917581;29;20484;-75
2022/10/20 08:42:02;;;;;;;8.60;7.70;;;9.10;99.90;;;;;;4917874;29;20452;-75
2022/10/20 08:44:39;;;;;;;8.37;7.33;;;9.20;99.90;;;;;;4918019;29;20436;-75
2022/10/20 08:47:22;;;;;;;8.17;7.37;;;9.30;99.90;;;;;;4917511;29;20421;-75
2022/10/20 08:49:52;;;;;;;10.30;8.00;;;9.30;99.90;;;;;;4917873;29;20475;-76
2022/10/20 08:52:23;;;;;;;9.13;8.23;;;9.40;99.90;;;;;;4916866;29;20463;-75
2022/10/20 08:54:54;;;;;;;22.10;9.30;;;9.40;99.90;;;;;;4918094;29;20459;-76
2022/10/20 08:57:24;;;;;;;10.10;7.60;;;9.40;99.90;;;;;;4918163;29;20531;-75
2022/10/20 08:59:59;;;;;;;8.10;7.40;;;9.50;99.90;;;;;;4916527;29;20476;-76
2022/10/20 09:02:30;;;;;;;7.97;7.20;;;9.50;99.90;;;;;;4916426;29;20858;-76
2022/10/20 09:05:00;;;;;;;9.43;7.47;;;9.60;99.90;;;;;;4916949;29;20448;-76
2022/10/20 09:07:32;;;;;;;8.80;7.90;;;9.60;99.90;;;;;;4918052;29;20480;-75
2022/10/20 09:10:09;;;;;;;8.43;7.73;;;9.70;99.90;;;;;;4916572;29;20487;-75
2022/10/20 09:12:41;;;;;;;10.67;8.67;;;9.80;99.90;;;;;;4916705;29;20452;-76
2022/10/20 09:15:12;;;;;;;9.30;8.40;;;9.80;99.90;;;;;;4917278;29;20508;-75
2022/10/20 09:17:45;;;;;;;8.80;7.90;;;9.80;99.90;;;;;;4916576;29;20479;-76
2022/10/20 09:20:19;;;;;;;10.00;9.00;;;9.80;99.90;;;;;;4917852;29;20484;-76
2022/10/20 09:22:47;;;;;;;8.57;7.73;;;9.80;99.90;;;;;;4917621;29;21002;-75
2022/10/20 09:25:18;;;;;;;8.90;8.00;;;9.90;99.90;;;;;;4917851;29;20440;-76
2022/10/20 09:27:46;;;;;;;8.83;8.00;;;9.90;99.90;;;;;;4916291;29;20828;-76
2022/10/20 09:30:21;;;;;;;9.27;8.57;;;9.90;99.90;;;;;;4916380;29;20468;-75
2022/10/20 09:32:49;;;;;;;9.40;8.40;;;10.00;99.90;;;;;;4918400;29;20439;-75
2022/10/20 09:35:21;;;;;;;10.20;9.20;;;10.00;99.90;;;;;;4916458;29;20467;-75
2022/10/20 09:37:54;;;;;;;9.17;8.30;;;10.10;99.90;;;;;;4916353;29;20993;-76
2022/10/20 09:40:25;;;;;;;9.27;8.07;;;10.10;99.90;;;;;;4916204;29;20825;-75
2022/10/20 09:42:55;;;;;;;8.80;8.00;;;10.20;99.90;;;;;;4916284;29;20468;-75
2022/10/20 09:45:28;;;;;;;10.57;8.53;;;10.20;99.90;;;;;;4918112;29;20421;-75
2022/10/20 09:48:02;;;;;;;9.37;8.57;;;10.30;99.90;;;;;;4919912;29;20476;-76
2022/10/20 09:50:34;;;;;;;9.87;8.97;;;10.30;99.90;;;;;;4920896;29;20479;-76
2022/10/20 09:53:05;;;;;;;12.13;8.73;;;10.40;99.90;;;;;;4919725;29;20511;-75
2022/10/20 09:55:40;;;;;;;9.60;8.70;;;10.40;99.90;;;;;;4919606;29;20468;-76
2022/10/20 09:58:19;;;;;;;9.50;8.60;;;10.50;99.90;;;;;;4920133;29;20468;-76
2022/10/20 10:00:59;;;;;;;9.33;8.43;;;10.60;99.90;;;;;;4918465;29;20479;-76
2022/10/20 10:03:27;;;;;;;9.10;8.33;;;10.70;99.90;;;;;;4918542;29;20875;-76
2022/10/20 10:05:57;;;;;;;9.30;8.20;;;10.70;99.90;;;;;;4919798;29;20828;-76
2022/10/20 10:08:28;;;;;;;13.13;9.10;;;10.80;99.90;;;;;;4918450;29;20461;-76
2022/10/20 10:11:02;;;;;;;18.47;9.80;;;10.90;99.90;;;;;;4920000;29;20463;-77
2022/10/20 10:13:36;;;;;;;14.63;9.67;;;11.00;99.90;;;;;;4918515;29;20459;-76
2022/10/20 10:16:09;;;;;;;9.17;8.37;;;11.00;99.90;;;;;;4919844;29;20511;-77
2022/10/20 10:18:38;;;;;;;13.77;9.90;;;11.10;99.90;;;;;;4918281;29;20457;-76
2022/10/20 10:21:08;;;;;;;9.70;8.70;;;11.20;99.90;;;;;;4919751;29;20875;-76
2022/10/20 10:23:49;;;;;;;9.40;8.50;;;11.30;99.90;;;;;;4919585;29;20448;-76
2022/10/20 10:26:40;;;;;;;9.70;8.90;;;11.30;99.90;;;;;;4918305;29;20926;-76
2022/10/20 10:29:17;;;;;;;9.70;8.80;;;11.40;99.90;;;;;;4918133;29;20926;-76
2022/10/20 10:31:52;;;;;;;9.70;8.70;;;11.40;99.90;;;;;;4918222;29;20483;-76
2022/10/20 10:34:42;;;;;;;10.40;9.37;;;11.50;99.90;;;;;;4918167;29;20472;-76
2022/10/20 10:37:13;;;;;;;8.93;8.13;;;11.50;99.90;;;;;;4919652;29;20950;-76
2022/10/20 10:39:42;;;;;;;10.83;9.47;;;11.60;99.90;;;;;;4917879;29;20535;-76
2022/10/20 10:42:33;;;;;;;9.53;8.63;;;11.60;99.90;;;;;;4919150;29;20453;-77
2022/10/20 10:45:12;;;;;;;12.40;8.60;;;11.70;99.90;;;;;;4919269;29;20515;-76
2022/10/20 10:48:13;;;;;;;9.27;8.47;;;11.80;99.90;;;;;;4919315;29;20448;-77
2022/10/20 10:50:47;;;;;;;9.13;8.20;;;11.80;99.90;;;;;;4919373;29;20825;-77
2022/10/20 10:53:29;;;;;;;9.43;8.53;;;11.90;99.90;;;;;;4917737;29;20459;-76
2022/10/20 10:56:04;;;;;;;10.73;9.33;;;11.90;99.90;;;;;;4919483;29;20870;-76
2022/10/20 10:58:41;;;;;;;10.10;9.10;;;11.90;99.90;;;;;;4918805;29;20463;-76
2022/10/20 11:01:31;;;;;;;11.03;9.93;;;12.00;99.90;;;;;;4917477;29;20483;-76
2022/10/20 11:04:34;;;;;;;9.67;7.97;;;12.10;99.90;;;;;;4914447;29;20966;-77
2022/10/20 11:07:07;;;;;;;9.30;8.40;;;12.00;99.90;;;;;;4915978;29;20452;-77
2022/10/20 11:09:41;;;;;;;9.90;8.90;;;12.10;99.90;;;;;;4917387;29;20448;-77
2022/10/20 11:12:34;;;;;;;9.13;8.33;;;12.10;99.90;;;;;;4917378;29;20819;-76
2022/10/20 11:15:18;;;;;;;10.07;8.97;;;12.20;99.90;;;;;;4918504;29;20432;-77
2022/10/20 11:17:52;;;;;;;10.07;8.90;;;12.20;99.90;;;;;;4918674;29;20468;-77
2022/10/20 11:20:27;;;;;;;8.90;8.00;;;12.30;99.90;;;;;;4918638;29;20563;-77
2022/10/20 11:23:21;;;;;;;10.27;9.17;;;12.40;99.90;;;;;;4917115;29;20949;-77
2022/10/20 11:25:57;;;;;;;9.87;8.87;;;12.40;99.90;;;;;;4917050;29;20441;-76
2022/10/20 11:28:32;;;;;;;8.60;7.80;;;12.50;99.90;;;;;;4918505;29;20432;-76
2022/10/20 11:31:00;;;;;;;13.00;11.17;;;12.60;99.90;;;;;;4918220;29;20901;-77
2022/10/20 11:33:41;;;;;;;10.80;9.70;;;12.60;99.90;;;;;;4918403;29;20459;-77
2022/10/20 11:36:16;;;;;;;9.20;8.40;;;12.70;99.90;;;;;;4918480;29;20443;-77
2022/10/20 11:38:49;;;;;;;8.77;7.97;;;12.80;99.90;;;;;;4918999;29;20468;-76
2022/10/20 11:41:22;;;;;;;9.87;8.90;;;12.80;99.90;;;;;;4916858;29;20478;-76
2022/10/20 11:43:56;;;;;;;9.03;8.13;;;12.90;99.90;;;;;;4916857;29;20947;-77
2022/10/20 11:46:34;;;;;;;8.77;7.90;;;12.90;99.90;;;;;;4918580;29;20457;-77
2022/10/20 11:49:04;;;;;;;8.77;8.07;;;13.00;99.90;;;;;;4916660;29;20440;-76
2022/10/20 11:52:12;;;;;;;7.63;6.93;;;13.00;99.90;;;;;;4917721;29;20467;-76
2022/10/20 11:54:55;;;;;;;10.00;8.43;;;13.00;99.90;;;;;;4896742;29;20472;-77
2022/10/20 11:57:33;;;;;;;8.90;8.10;;;13.00;99.90;;;;;;4912417;29;20550;-77
2022/10/20 12:00:22;;;;;;;9.77;8.87;;;13.00;99.90;;;;;;4916698;29;21056;-77
2022/10/20 12:03:27;;;;;;;8.70;7.90;;;13.10;99.90;;;;;;4915417;29;20568;-77
2022/10/20 12:06:20;;;;;;;10.37;8.53;;;13.10;99.90;;;;;;4917613;29;20424;-77
2022/10/20 12:09:16;;;;;;;9.00;8.10;;;13.10;99.90;;;;;;4918107;29;20524;-77
2022/10/20 12:11:51;;;;;;;7.97;7.17;;;13.10;99.90;;;;;;4917539;29;20887;-77
2022/10/20 12:14:26;;;;;;;8.90;7.63;;;13.10;99.90;;;;;;4917813;29;20444;-77
2022/10/20 12:17:10;;;;;;;9.40;7.43;;;13.20;99.90;;;;;;4917816;29;20420;-77
2022/10/20 12:19:39;;;;;;;8.30;7.60;;;13.20;99.90;;;;;;4917282;29;20441;-77
2022/10/20 12:22:39;;;;;;;9.07;8.17;;;13.20;99.90;;;;;;4916334;29;20838;-77
2022/10/20 12:25:35;;;;;;;8.87;7.97;;;13.30;99.90;;;;;;4916088;29;20981;-77
2022/10/20 12:28:42;;;;;;;10.00;8.60;;;13.30;99.90;;;;;;4916091;29;20500;-77
2022/10/20 12:31:10;;;;;;;8.90;8.00;;;13.40;99.90;;;;;;4916284;29;20882;-77
2022/10/20 12:33:41;;;;;;;8.57;7.67;;;13.40;99.90;;;;;;4915966;29;20459;-77
2022/10/20 12:36:27;;;;;;;7.77;7.03;;;13.50;99.90;;;;;;4916130;29;20448;-77
2022/10/20 12:39:16;;;;;;;9.17;8.27;;;13.50;99.90;;;;;;4915858;29;20472;-77
2022/10/20 12:41:56;;;;;;;9.50;7.90;;;13.60;99.90;;;;;;4915844;29;20488;-77
2022/10/20 12:44:26;;;;;;;8.47;7.50;;;13.60;99.90;;;;;;4917450;29;20436;-77
2022/10/20 12:46:57;;;;;;;8.43;7.53;;;13.60;99.90;;;;;;4917200;29;20476;-77
2022/10/20 12:49:32;;;;;;;8.67;7.77;;;13.60;99.90;;;;;;4915753;29;20456;-77
2022/10/20 12:52:02;;;;;;;8.70;7.80;;;13.60;99.90;;;;;;4917667;29;20430;-77
2022/10/20 12:54:35;;;;;;;8.27;7.17;;;13.70;99.90;;;;;;4916973;29;20464;-77
2022/10/20 12:57:25;;;;;;;8.60;7.70;;;13.70;99.90;;;;;;4917026;29;20429;-77
2022/10/20 12:59:53;;;;;;;7.97;6.73;;;13.70;99.90;;;;;;4917273;29;21006;-77
2022/10/20 13:02:47;;;;;;;9.30;7.50;;;13.70;99.90;;;;;;4915870;29;20476;-77
2022/10/20 13:05:43;;;;;;;8.00;7.20;;;13.70;99.90;;;;;;4915949;29;20822;-77
2022/10/20 13:08:36;;;;;;;6.90;6.30;;;13.70;99.90;;;;;;4916912;29;20427;-77
2022/10/20 13:11:33;;;;;;;7.80;7.10;;;13.70;99.90;;;;;;4915672;29;20565;-77
2022/10/20 13:14:17;;;;;;;9.67;7.20;;;13.80;99.90;;;;;;4916803;29;20444;-77
2022/10/20 13:16:49;;;;;;;8.90;8.20;;;13.80;99.90;;;;;;4915698;29;20467;-77
2022/10/20 13:19:22;;;;;;;8.87;8.07;;;13.80;99.90;;;;;;4915549;29;20468;-77
2022/10/20 13:21:51;;;;;;;8.03;7.33;;;13.80;99.90;;;;;;4917640;29;20512;-77
2022/10/20 13:24:26;;;;;;;8.50;7.60;;;13.80;99.90;;;;;;4920561;29;20452;-77